createdAt,value
2019-05-13T00:01:43.412Z,102465.16
2019-05-13T00:04:14.125Z,102331.86
2019-05-13T00:06:53.483Z,102465.02
2019-05-13T00:09:14.390Z,102456.66
2019-05-13T00:11:43.844Z,102455.62
2019-05-13T00:14:13.412Z,102461.22
2019-05-13T00:16:44.887Z,102459.28
2019-05-13T00:19:14.253Z,102463.47
2019-05-13T00:21:44.478Z,102458.42
2019-05-13T00:24:13.890Z,102458.55
2019-05-13T00:26:44.402Z,102457.00
2019-05-13T00:29:14.250Z,102458.86
2019-05-13T00:31:43.903Z,102469.91
2019-05-13T00:34:14.392Z,102462.26
2019-05-13T00:36:44.600Z,102471.16
2019-05-13T00:39:15.336Z,102467.91
2019-05-13T00:41:44.592Z,102464.99
2019-05-13T00:44:14.372Z,102473.52
2019-05-13T00:46:45.248Z,102474.45
2019-05-13T00:49:14.390Z,102475.47
2019-05-13T00:51:44.488Z,102472.17
2019-05-13T00:54:13.848Z,102474.09
2019-05-13T00:56:43.625Z,102475.25
2019-05-13T00:59:14.204Z,102471.95
2019-05-13T01:01:44.117Z,102473.12
2019-05-13T01:04:14.313Z,102471.53
2019-05-13T01:06:43.718Z,102474.01
2019-05-13T01:09:14.444Z,102477.30
2019-05-13T01:11:43.875Z,102474.86
2019-05-13T01:14:14.348Z,102478.94
2019-05-13T01:16:44.299Z,102475.10
2019-05-13T01:19:14.332Z,102480.53
2019-05-13T01:21:43.646Z,102476.36
2019-05-13T01:24:14.406Z,102480.09
2019-05-13T01:26:43.932Z,102482.97
2019-05-13T01:29:13.617Z,102481.50
2019-05-13T01:31:43.415Z,102483.06
2019-05-13T01:34:14.305Z,102485.45
2019-05-13T01:36:44.653Z,102480.98
2019-05-13T01:39:14.063Z,102485.58
2019-05-13T01:41:43.803Z,102484.59
2019-05-13T01:44:13.991Z,102488.36
2019-05-13T01:46:43.834Z,102487.87
2019-05-13T01:49:13.793Z,102485.58
2019-05-13T01:51:44.087Z,102484.19
2019-05-13T01:54:14.213Z,102485.42
2019-05-13T01:56:44.343Z,102484.36
2019-05-13T01:59:15.160Z,102485.05
2019-05-13T02:01:44.448Z,102483.50
2019-05-13T02:04:14.303Z,102092.13
2019-05-13T02:06:44.268Z,102483.38
2019-05-13T02:09:14.196Z,102484.02
2019-05-13T02:11:44.586Z,102492.80
2019-05-13T02:14:14.270Z,102486.66
2019-05-13T02:16:44.516Z,102478.90
2019-05-13T02:19:14.273Z,102479.39
2019-05-13T02:21:44.016Z,102486.83
2019-05-13T02:24:14.504Z,102488.05
2019-05-13T02:26:43.963Z,102488.88
2019-05-13T02:29:14.306Z,102492.72
2019-05-13T02:31:51.608Z,102493.94
2019-05-13T02:34:14.392Z,102491.98
2019-05-13T02:36:44.036Z,102492.62
2019-05-13T02:39:13.346Z,102490.33
2019-05-13T02:41:43.115Z,102495.02
2019-05-13T02:44:12.589Z,102502.38
2019-05-13T02:46:44.302Z,102504.83
2019-05-13T02:49:12.557Z,102506.28
2019-05-13T02:51:42.894Z,102518.37
2019-05-13T02:54:12.720Z,102517.07
2019-05-13T02:56:42.417Z,102512.66
2019-05-13T02:59:13.220Z,102513.38
2019-05-13T03:01:43.244Z,102520.19
2019-05-13T03:04:13.167Z,102518.39
2019-05-13T03:06:43.725Z,102515.59
2019-05-13T03:09:13.468Z,102517.72
2019-05-13T03:11:42.746Z,102517.72
2019-05-13T03:14:12.776Z,102518.54
2019-05-13T03:16:57.346Z,102527.34
2019-05-13T03:19:26.472Z,102525.54
2019-05-13T03:21:55.587Z,102529.61
2019-05-13T03:24:24.705Z,102533.88
2019-05-13T03:26:53.902Z,102539.34
2019-05-13T03:29:23.066Z,102538.98
2019-05-13T03:31:55.874Z,102536.52
2019-05-13T03:34:26.637Z,102541.66
2019-05-13T03:36:56.957Z,102548.05
2019-05-13T03:39:25.215Z,102548.86
2019-05-13T03:41:56.503Z,102547.05
2019-05-13T03:44:27.795Z,102552.59
2019-05-13T03:46:58.021Z,102553.23
2019-05-13T03:49:32.558Z,102554.85
2019-05-13T03:52:02.916Z,102560.89
2019-05-13T03:54:32.949Z,102564.81
2019-05-13T03:57:03.505Z,102568.92
2019-05-13T03:59:33.682Z,102562.47
2019-05-13T04:02:03.184Z,102572.84
2019-05-13T04:04:32.764Z,102565.49
2019-05-13T04:07:02.849Z,102563.69
2019-05-13T04:09:35.981Z,102567.61
2019-05-13T04:12:03.512Z,102566.30
2019-05-13T04:14:33.573Z,102570.62
2019-05-13T04:17:03.226Z,102574.14
2019-05-13T04:19:34.165Z,102571.12
2019-05-13T04:22:03.556Z,102568.02
2019-05-13T04:24:33.734Z,102576.76
2019-05-13T04:27:03.348Z,102575.95
2019-05-13T04:29:33.526Z,102575.86
2019-05-13T04:32:03.064Z,102572.66
2019-05-13T04:34:33.614Z,102581.30
2019-05-13T04:37:03.373Z,102578.38
2019-05-13T04:39:46.147Z,102583.39
2019-05-13T04:42:03.544Z,102585.28
2019-05-13T04:44:32.864Z,102593.71
2019-05-13T04:47:04.216Z,102588.22
2019-05-13T04:49:33.660Z,102591.02
2019-05-13T04:52:03.729Z,102591.60
2019-05-13T04:54:33.832Z,102596.78
2019-05-13T04:57:03.460Z,102592.23
2019-05-13T04:59:34.751Z,102596.80
2019-05-13T05:02:36.757Z,102606.22
2019-05-13T05:05:13.826Z,102600.35
2019-05-13T05:08:11.992Z,102598.41
2019-05-13T05:11:32.442Z,102596.88
2019-05-13T05:14:25.752Z,102590.16
2019-05-13T05:17:22.558Z,102594.02
2019-05-13T05:20:05.817Z,102597.13
2019-05-13T05:22:57.902Z,102598.62
2019-05-13T05:25:38.297Z,102596.17
2019-05-13T05:28:51.979Z,102604.61
2019-05-13T05:31:48.200Z,102491.48
2019-05-13T05:35:03.262Z,102604.86
2019-05-13T05:38:02.057Z,102601.78
2019-05-13T05:40:34.779Z,102606.35
2019-05-13T05:43:06.180Z,102571.09
2019-05-13T05:45:38.326Z,102610.30
2019-05-13T05:48:08.482Z,102606.66
2019-05-13T05:50:38.942Z,102612.00
2019-05-13T05:53:08.264Z,102602.17
2019-05-13T05:55:41.080Z,102599.03
2019-05-13T05:58:12.062Z,102608.45
2019-05-13T06:01:34.027Z,102605.09
2019-05-13T06:04:03.312Z,102601.45
2019-05-13T06:06:33.104Z,102593.40
2019-05-13T06:09:02.321Z,102603.10
2019-05-13T06:11:33.582Z,102599.77
2019-05-13T06:14:03.059Z,102597.53
2019-05-13T06:16:32.265Z,102591.48
2019-05-13T06:19:01.573Z,102598.12
2019-05-13T06:21:32.133Z,102590.64
2019-05-13T06:24:02.708Z,102597.96
2019-05-13T06:26:32.187Z,102599.46
2019-05-13T06:29:02.718Z,102600.03
2019-05-13T06:31:32.408Z,102598.33
2019-05-13T06:34:02.141Z,102601.92
2019-05-13T06:36:32.597Z,102607.06
2019-05-13T06:39:02.370Z,102603.09
2019-05-13T06:41:32.496Z,102596.05
2019-05-13T06:44:02.631Z,102589.72
2019-05-13T06:46:32.401Z,102592.04
2019-05-13T06:49:02.852Z,102588.92
2019-05-13T06:51:32.189Z,102595.16
2019-05-13T06:54:02.302Z,102597.56
2019-05-13T06:56:32.389Z,102592.16
2019-05-13T06:59:02.143Z,102588.59
2019-05-13T07:01:32.400Z,102589.83
2019-05-13T07:04:02.417Z,102584.55
2019-05-13T07:06:32.455Z,102592.69
2019-05-13T07:09:01.886Z,102597.64
2019-05-13T07:11:31.542Z,102593.98
2019-05-13T07:14:02.737Z,102591.73
2019-05-13T07:16:32.018Z,102155.70
2019-05-13T07:19:02.647Z,102580.52
2019-05-13T07:21:32.412Z,102588.33
2019-05-13T07:24:02.266Z,102588.97
2019-05-13T07:26:31.779Z,102587.06
2019-05-13T07:29:03.642Z,102585.54
2019-05-13T07:31:32.451Z,102585.16
2019-05-13T07:34:02.415Z,102583.80
2019-05-13T07:36:31.826Z,102580.44
2019-05-13T07:39:02.229Z,102580.55
2019-05-13T07:41:39.055Z,102580.89
2019-05-13T07:44:02.680Z,102568.31
2019-05-13T07:46:32.351Z,102567.07
2019-05-13T07:49:02.283Z,102574.83
2019-05-13T07:51:32.071Z,102570.11
2019-05-13T07:54:02.209Z,102571.31
2019-05-13T07:56:32.416Z,102568.54
2019-05-13T07:59:02.041Z,102573.29
2019-05-13T08:01:32.685Z,102358.45
2019-05-13T08:04:02.335Z,102576.97
2019-05-13T08:06:32.380Z,102362.64
2019-05-13T08:09:02.012Z,102570.05
2019-05-13T08:11:36.863Z,102404.56
2019-05-13T08:14:02.094Z,102565.48
2019-05-13T08:16:32.284Z,102296.71
2019-05-13T08:19:01.943Z,102565.09
2019-05-13T08:21:32.205Z,102557.72
2019-05-13T08:24:02.668Z,102564.43
2019-05-13T08:26:32.438Z,102554.18
2019-05-13T08:29:05.547Z,102562.02
2019-05-13T08:31:32.620Z,102556.83
2019-05-13T08:34:02.562Z,102556.53
2019-05-13T08:36:32.689Z,102551.05
2019-05-13T08:39:02.635Z,102548.77
2019-05-13T08:41:32.461Z,102549.67
2019-05-13T08:44:01.830Z,102557.47
2019-05-13T08:46:32.286Z,102558.63
2019-05-13T08:49:03.687Z,102555.30
2019-05-13T08:51:34.823Z,102553.23
2019-05-13T08:54:03.499Z,102553.23
2019-05-13T08:56:32.983Z,102544.00
2019-05-13T08:59:02.135Z,102547.52
2019-05-13T09:01:32.011Z,102538.70
2019-05-13T09:04:02.266Z,102545.03
2019-05-13T09:06:31.825Z,102551.32
2019-05-13T09:09:02.392Z,102549.07
2019-05-13T09:11:31.881Z,102545.06
2019-05-13T09:14:02.342Z,102543.34
2019-05-13T09:16:32.071Z,102540.70
2019-05-13T09:19:03.793Z,102541.19
2019-05-13T09:21:32.561Z,102542.94
2019-05-13T09:24:02.274Z,102545.94
2019-05-13T09:26:31.802Z,102541.50
2019-05-13T09:29:01.596Z,102541.04
2019-05-13T09:31:32.421Z,102538.52
2019-05-13T09:34:01.715Z,102538.91
2019-05-13T09:36:32.435Z,102548.84
2019-05-13T09:39:02.207Z,102537.92
2019-05-13T09:41:33.091Z,102533.73
2019-05-13T09:44:02.388Z,102539.86
2019-05-13T09:46:31.962Z,102536.31
2019-05-13T09:49:15.064Z,102536.31
2019-05-13T09:51:32.581Z,102535.46
2019-05-13T09:54:02.207Z,102524.66
2019-05-13T09:56:32.139Z,102527.37
2019-05-13T09:59:01.873Z,102534.66
2019-05-13T10:01:32.033Z,102532.17
2019-05-13T10:04:03.084Z,102540.25
2019-05-13T10:06:32.841Z,102521.56
2019-05-13T10:09:02.553Z,102523.35
2019-05-13T10:11:32.025Z,102522.45
2019-05-13T10:14:07.287Z,102528.72
2019-05-13T10:16:36.597Z,102528.29
2019-05-13T10:19:07.671Z,102522.95
2019-05-13T10:21:37.013Z,102529.12
2019-05-13T10:24:06.140Z,102532.23
2019-05-13T10:26:35.615Z,102520.22
2019-05-13T10:29:05.245Z,102520.22
2019-05-13T10:31:34.397Z,102517.05
2019-05-13T10:34:03.552Z,102514.42
2019-05-13T10:36:32.797Z,102526.86
2019-05-13T10:39:01.947Z,102520.64
2019-05-13T10:41:33.310Z,102518.00
2019-05-13T10:44:02.924Z,102516.26
2019-05-13T10:46:32.514Z,102521.63
2019-05-13T10:49:02.036Z,102517.13
2019-05-13T10:51:32.694Z,102512.27
2019-05-13T10:54:02.078Z,102504.67
2019-05-13T10:56:32.728Z,102497.54
2019-05-13T10:59:03.107Z,102497.52
2019-05-13T11:01:32.886Z,102506.04
2019-05-13T11:04:02.545Z,102504.63
2019-05-13T11:06:32.594Z,102496.56
2019-05-13T11:09:02.325Z,102494.70
2019-05-13T11:11:33.052Z,102489.73
2019-05-13T11:14:10.627Z,102355.92
2019-05-13T11:16:33.349Z,102486.41
2019-05-13T11:19:03.002Z,102489.99
2019-05-13T11:21:32.308Z,102477.03
2019-05-13T11:24:03.427Z,102466.72
2019-05-13T11:26:36.136Z,102360.33
2019-05-13T11:29:04.687Z,102470.73
2019-05-13T11:31:33.857Z,102467.54
2019-05-13T11:34:02.983Z,102470.67
2019-05-13T11:36:33.395Z,102460.80
2019-05-13T11:39:05.961Z,102460.75
2019-05-13T11:41:35.234Z,102459.05
2019-05-13T11:44:12.708Z,102460.31
2019-05-13T11:46:35.344Z,102453.14
2019-05-13T11:49:04.592Z,102453.45
2019-05-13T11:51:33.912Z,102444.37
2019-05-13T11:54:03.351Z,102444.31
2019-05-13T11:56:33.671Z,102450.94
2019-05-13T11:59:04.423Z,102437.63
2019-05-13T12:01:34.622Z,102444.83
2019-05-13T12:04:03.852Z,102437.64
2019-05-13T12:06:33.820Z,102435.12
2019-05-13T12:09:05.480Z,102441.36
2019-05-13T12:11:34.611Z,102432.47
2019-05-13T12:14:03.839Z,102434.56
2019-05-13T12:16:34.994Z,102429.19
2019-05-13T12:19:04.004Z,102425.61
2019-05-13T12:21:33.270Z,102424.22
2019-05-13T12:24:10.212Z,102423.04
2019-05-13T12:26:33.450Z,102422.19
2019-05-13T12:29:03.007Z,102428.87
2019-05-13T12:31:33.625Z,102429.69
2019-05-13T12:34:03.723Z,102420.73
2019-05-13T12:36:33.211Z,102416.22
2019-05-13T12:39:02.490Z,102418.36
2019-05-13T12:41:33.084Z,102414.88
2019-05-13T12:44:02.460Z,102413.08
2019-05-13T12:46:31.632Z,102402.19
2019-05-13T12:49:03.261Z,102407.42
2019-05-13T12:51:32.508Z,102404.43
2019-05-13T12:54:06.156Z,102399.06
2019-05-13T12:56:35.306Z,102395.47
2019-05-13T12:59:04.614Z,102385.17
2019-05-13T13:01:33.916Z,102376.81
2019-05-13T13:04:03.076Z,102377.31
2019-05-13T13:06:40.396Z,102391.92
2019-05-13T13:09:04.401Z,102377.95
2019-05-13T13:11:33.641Z,102378.78
2019-05-13T13:14:09.548Z,102377.91
2019-05-13T13:16:35.174Z,102117.80
2019-05-13T13:19:04.390Z,102366.31
2019-05-13T13:21:37.510Z,102364.66
2019-05-13T13:24:04.897Z,102359.77
2019-05-13T13:26:34.120Z,102363.80
2019-05-13T13:29:03.313Z,102359.10
2019-05-13T13:31:33.595Z,102366.17
2019-05-13T13:34:11.352Z,102364.39
2019-05-13T13:36:34.144Z,102360.64
2019-05-13T13:39:03.956Z,102366.88
2019-05-13T13:41:33.268Z,102358.70
2019-05-13T13:46:42.473Z,102345.14
2019-05-13T13:49:04.228Z,102356.59
2019-05-13T13:51:34.379Z,102352.06
2019-05-13T13:54:03.702Z,102346.58
2019-05-13T13:56:33.044Z,102347.56
2019-05-13T13:59:04.458Z,102348.36
2019-05-13T14:01:33.928Z,102342.45
2019-05-13T14:04:04.003Z,102341.00
2019-05-13T14:06:58.777Z,102360.03
2019-05-13T14:07:25.423Z,102339.13
2019-05-13T14:09:05.651Z,102345.30
2019-05-13T14:11:34.797Z,102338.73
2019-05-13T14:14:04.064Z,102340.77
2019-05-13T14:16:41.771Z,102333.91
2019-05-13T14:19:04.124Z,102342.84
2019-05-13T14:21:33.335Z,102337.48
2019-05-13T14:24:02.831Z,102327.77
2019-05-13T14:26:33.083Z,102324.77
2019-05-13T14:29:02.885Z,102314.02
2019-05-13T14:31:32.476Z,102320.72
2019-05-13T14:34:03.669Z,102321.12
2019-05-13T14:36:32.938Z,102315.72
2019-05-13T14:39:02.884Z,102310.33
2019-05-13T14:41:32.337Z,102312.53
2019-05-13T14:44:03.721Z,102315.09
2019-05-13T14:46:46.657Z,102316.84
2019-05-13T14:49:03.287Z,102301.27
2019-05-13T14:51:32.511Z,102303.98
2019-05-13T14:54:02.760Z,102301.22
2019-05-13T14:56:32.481Z,102301.72
2019-05-13T14:59:41.374Z,102298.80
2019-05-13T15:02:11.919Z,102299.51
2019-05-13T15:04:41.983Z,102301.25
2019-05-13T15:07:12.250Z,102302.78
2019-05-13T15:09:42.236Z,102300.52
2019-05-13T15:12:11.586Z,102305.31
2019-05-13T15:14:42.910Z,102310.66
2019-05-13T15:17:12.852Z,102304.13
2019-05-13T15:19:42.255Z,102303.17
2019-05-13T15:22:16.113Z,102297.00
2019-05-13T15:24:46.038Z,102298.08
2019-05-13T15:27:15.206Z,102302.11
2019-05-13T15:29:44.542Z,102297.61
2019-05-13T15:32:17.117Z,102294.93
2019-05-13T15:34:46.651Z,102300.73
2019-05-13T15:37:15.934Z,102298.95
2019-05-13T15:39:45.361Z,102300.30
2019-05-13T15:42:14.604Z,102302.66
2019-05-13T15:44:44.080Z,102294.52
2019-05-13T15:47:22.754Z,102283.23
2019-05-13T15:49:44.190Z,102049.75
2019-05-13T15:52:13.454Z,102292.58
2019-05-13T15:54:42.653Z,102293.90
2019-05-13T15:57:12.123Z,102295.22
2019-05-13T15:59:41.621Z,102292.98
2019-05-13T16:02:11.750Z,102284.77
2019-05-13T16:04:51.922Z,102287.41
2019-05-13T16:07:12.454Z,102288.70
2019-05-13T16:09:42.165Z,102287.87
2019-05-13T16:12:12.186Z,102288.75
2019-05-13T16:14:42.095Z,102285.70
2019-05-13T16:17:12.312Z,102289.27
2019-05-13T16:19:42.067Z,102286.24
2019-05-13T16:22:11.953Z,102288.19
2019-05-13T16:24:41.696Z,102281.97
2019-05-13T16:27:11.796Z,102286.58
2019-05-13T16:29:42.230Z,102285.61
2019-05-13T16:32:12.110Z,102287.02
2019-05-13T16:34:42.299Z,102286.58
2019-05-13T16:37:11.844Z,102284.41
2019-05-13T16:39:41.591Z,102292.09
2019-05-13T16:42:11.669Z,102294.30
2019-05-13T16:44:42.939Z,102295.20
2019-05-13T16:47:12.462Z,102292.09
2019-05-13T16:49:41.527Z,102285.98
2019-05-13T16:52:11.712Z,102287.35
2019-05-13T16:54:42.409Z,102288.23
2019-05-13T16:57:11.926Z,102282.91
2019-05-13T16:59:41.222Z,102293.16
2019-05-13T17:02:12.629Z,102288.84
2019-05-13T17:04:41.512Z,102287.03
2019-05-13T17:07:12.096Z,102280.80
2019-05-13T17:09:41.614Z,102285.33
2019-05-13T17:12:12.891Z,102158.71
2019-05-13T17:14:41.905Z,102282.70
2019-05-13T17:17:11.879Z,102286.27
2019-05-13T17:19:42.297Z,102281.42
2019-05-13T17:22:11.711Z,102291.25
2019-05-13T17:24:42.686Z,102286.39
2019-05-13T17:27:12.241Z,102278.88
2019-05-13T17:29:41.501Z,102282.88
2019-05-13T17:32:11.591Z,102277.53
2019-05-13T17:34:43.646Z,102281.99
2019-05-13T17:37:11.913Z,102277.98
2019-05-13T17:39:41.591Z,102282.92
2019-05-13T17:42:12.291Z,102280.25
2019-05-13T17:44:45.880Z,102286.97
2019-05-13T17:47:12.929Z,102285.62
2019-05-13T17:49:42.096Z,102288.28
2019-05-13T17:52:11.613Z,102288.30
2019-05-13T17:54:42.829Z,102290.48
2019-05-13T17:57:12.489Z,102291.81
2019-05-13T17:59:41.987Z,102289.55
2019-05-13T18:02:11.782Z,102203.63
2019-05-13T18:04:41.595Z,102293.50
2019-05-13T18:07:12.200Z,102281.92
2019-05-13T18:09:42.325Z,102281.89
2019-05-13T18:12:11.830Z,102282.77
2019-05-13T18:14:41.314Z,102283.19
2019-05-13T18:17:12.575Z,102279.12
2019-05-13T18:19:42.175Z,102278.19
2019-05-13T18:22:11.618Z,102284.81
2019-05-13T18:24:40.782Z,102288.75
2019-05-13T18:27:12.079Z,102282.98
2019-05-13T18:29:41.985Z,102279.77
2019-05-13T18:32:12.356Z,102289.93
2019-05-13T18:34:41.747Z,102283.19
2019-05-13T18:37:11.856Z,102282.19
2019-05-13T18:39:41.777Z,102285.69
2019-05-13T18:42:11.594Z,102281.17
2019-05-13T18:44:42.166Z,102283.32
2019-05-13T18:47:12.212Z,102289.45
2019-05-13T18:49:42.283Z,102296.47
2019-05-13T18:52:11.878Z,102291.95
2019-05-13T18:54:42.127Z,102292.78
2019-05-13T18:57:12.199Z,102291.80
2019-05-13T18:59:41.749Z,102290.84
2019-05-13T19:02:12.214Z,102295.19
2019-05-13T19:04:41.935Z,102298.20
2019-05-13T19:07:11.086Z,102303.06
2019-05-13T19:09:41.778Z,102306.08
2019-05-13T19:12:11.646Z,102304.66
2019-05-13T19:14:41.247Z,102305.91
2019-05-13T19:17:12.333Z,102305.38
2019-05-13T19:19:42.204Z,102307.48
2019-05-13T19:22:12.301Z,102311.87
2019-05-13T19:24:41.760Z,102310.83
2019-05-13T19:27:12.058Z,102311.58
2019-05-13T19:29:42.435Z,102326.53
2019-05-13T19:32:12.531Z,102325.98
2019-05-13T19:34:42.346Z,102328.10
2019-05-13T19:37:11.894Z,102328.37
2019-05-13T19:39:41.137Z,102001.28
2019-05-13T19:42:11.567Z,102329.05
2019-05-13T19:44:42.043Z,102330.27
2019-05-13T19:47:12.452Z,102145.00
2019-05-13T19:49:46.129Z,102334.92
2019-05-13T19:52:12.575Z,102332.62
2019-05-13T19:54:42.102Z,102340.46
2019-05-13T19:57:11.923Z,102332.39
2019-05-13T19:59:42.638Z,102328.73
2019-05-13T20:02:12.404Z,102333.47
2019-05-13T20:04:41.800Z,102332.95
2019-05-13T20:07:11.798Z,102335.95
2019-05-13T20:09:42.576Z,102332.77
2019-05-13T20:12:12.012Z,102337.97
2019-05-13T20:14:41.225Z,102336.98
2019-05-13T20:17:12.266Z,102339.50
2019-05-13T20:19:50.132Z,102336.66
2019-05-13T20:22:12.096Z,102329.04
2019-05-13T20:24:42.033Z,102330.27
2019-05-13T20:27:12.020Z,102326.55
2019-05-13T20:29:41.753Z,102324.23
2019-05-13T20:32:11.650Z,102321.45
2019-05-13T20:34:40.872Z,102321.77
2019-05-13T20:37:12.247Z,102325.67
2019-05-13T20:39:42.471Z,102326.46
2019-05-13T20:42:12.473Z,102330.75
2019-05-13T20:44:42.625Z,102332.36
2019-05-13T20:47:11.762Z,102330.42
2019-05-13T20:49:41.722Z,102333.03
2019-05-13T20:52:14.698Z,102332.95
2019-05-13T20:54:42.059Z,102335.06
2019-05-13T20:57:11.212Z,102338.02
2019-05-13T20:59:41.345Z,102340.12
2019-05-13T21:02:12.475Z,102335.22
2019-05-13T21:04:41.765Z,102331.05
2019-05-13T21:07:10.920Z,102333.97
2019-05-13T21:09:42.171Z,102338.72
2019-05-13T21:12:12.032Z,102338.16
2019-05-13T21:14:41.663Z,102342.05
2019-05-13T21:17:12.227Z,102337.48
2019-05-13T21:19:42.867Z,102339.63
2019-05-13T21:22:12.199Z,102339.45
2019-05-13T21:24:41.405Z,102336.98
2019-05-13T21:27:11.861Z,102344.28
2019-05-13T21:29:41.449Z,102347.64
2019-05-13T21:32:11.775Z,102353.13
2019-05-13T21:34:41.074Z,102351.20
2019-05-13T21:37:11.551Z,102346.59
2019-05-13T21:39:41.270Z,102349.59
2019-05-13T21:42:11.425Z,102346.57
2019-05-13T21:44:41.976Z,102350.16
2019-05-13T21:47:11.476Z,102345.48
2019-05-13T21:49:42.333Z,102350.94
2019-05-13T21:52:11.794Z,102349.15
2019-05-13T21:54:42.159Z,102347.73
2019-05-13T21:57:11.533Z,102352.44
2019-05-13T21:59:41.383Z,102350.11
2019-05-13T22:02:10.792Z,102348.64
2019-05-13T22:04:41.282Z,102352.92
2019-05-13T22:07:12.133Z,102355.47
2019-05-13T22:09:42.232Z,102355.30
2019-05-13T22:12:11.598Z,102356.98
2019-05-13T22:14:41.298Z,102354.83
2019-05-13T22:17:12.319Z,102354.35
2019-05-13T22:19:41.998Z,102364.05
2019-05-13T22:22:11.691Z,102362.27
2019-05-13T22:24:41.825Z,102355.25
2019-05-13T22:27:13.187Z,102354.25
2019-05-13T22:29:41.999Z,102357.26
2019-05-13T22:32:11.441Z,102355.42
2019-05-13T22:34:41.963Z,102354.94
2019-05-13T22:37:11.655Z,102355.89
2019-05-13T22:39:42.138Z,102347.55
2019-05-13T22:42:12.391Z,102345.77
2019-05-13T22:44:42.023Z,102341.23
2019-05-13T22:47:13.318Z,102332.80
2019-05-13T22:49:41.949Z,102329.19
2019-05-13T22:52:11.480Z,102325.14
2019-05-13T22:54:41.332Z,102324.23
2019-05-13T22:57:11.897Z,102324.66
2019-05-13T22:59:41.694Z,102324.66
2019-05-13T23:02:10.967Z,102322.88
2019-05-13T23:04:41.871Z,102327.30
2019-05-13T23:07:11.793Z,102321.08
2019-05-13T23:09:41.689Z,102321.34
2019-05-13T23:12:12.326Z,102317.48
2019-05-13T23:14:41.573Z,102328.19
2019-05-13T23:17:12.492Z,102320.55
2019-05-13T23:19:41.628Z,102315.17
2019-05-13T23:22:12.100Z,102305.92
2019-05-13T23:24:41.735Z,102307.66
2019-05-13T23:27:11.202Z,102300.50
2019-05-13T23:29:41.192Z,102306.61
2019-05-13T23:32:12.066Z,102304.87
2019-05-13T23:34:42.296Z,102307.77
2019-05-13T23:37:11.614Z,102307.72
2019-05-13T23:39:41.651Z,102300.23
2019-05-13T23:42:12.140Z,102303.77
2019-05-13T23:44:41.732Z,102304.13
2019-05-13T23:47:11.631Z,102303.55
2019-05-13T23:49:42.142Z,102310.13
2019-05-13T23:52:11.897Z,102306.05
2019-05-13T23:54:42.506Z,102307.94
2019-05-13T23:57:12.018Z,102308.65
2019-05-13T23:59:41.970Z,102307.81
